sensor_id;sensor_type;location;lat;lon;timestamp;pressure;altitude;pressure_sealevel;temperature;humidity
16481;BME280;44634;54.110;12.138;2022-10-16T00:01:40;100620.31;;;18.68;100.00
16481;BME280;44634;54.110;12.138;2022-10-16T00:04:09;100601.22;;;18.35;100.00
16481;BME280;44634;54.110;12.138;2022-10-16T00:06:37;100649.97;;;18.31;100.00
16481;BME280;44634;54.110;12.138;2022-10-16T00:09:05;100678.38;;;18.10;100.00
16481;BME280;44634;54.110;12.138;2022-10-16T00:11:35;100692.56;;;18.26;100.00
16481;BME280;44634;54.110;12.138;2022-10-16T00:14:07;100727.25;;;18.19;100.00
16481;BME280;44634;54.110;12.138;2022-10-16T00:16:36;100770.72;;;18.06;100.00
16481;BME280;44634;54.110;12.138;2022-10-16T00:19:04;100804.41;;;18.16;100.00
16481;BME280;44634;54.110;12.138;2022-10-16T00:21:32;100762.38;;;18.46;100.00
16481;BME280;44634;54.110;12.138;2022-10-16T00:24:02;100775.72;;;18.09;100.00
16481;BME280;44634;54.110;12.138;2022-10-16T00:26:33;100816.19;;;17.92;100.00
16481;BME280;44634;54.110;12.138;2022-10-16T00:29:01;100851.28;;;17.97;100.00
16481;BME280;44634;54.110;12.138;2022-10-16T00:31:31;100846.03;;;18.18;100.00
16481;BME280;44634;54.110;12.138;2022-10-16T00:33:59;100819.72;;;18.22;100.00
16481;BME280;44634;54.110;12.138;2022-10-16T00:36:27;100813.25;;;18.16;100.00
16481;BME280;44634;54.110;12.138;2022-10-16T00:38:56;100825.72;;;18.09;100.00
16481;BME280;44634;54.110;12.138;2022-10-16T00:41:31;100798.22;;;18.30;100.00
16481;BME280;44634;54.110;12.138;2022-10-16T00:44:00;100777.84;;;18.14;100.00
16481;BME280;44634;54.110;12.138;2022-10-16T00:46:32;100816.13;;;18.00;100.00
16481;BME280;44634;54.110;12.138;2022-10-16T00:49:03;100803.19;;;18.18;100.00
16481;BME280;44634;54.110;12.138;2022-10-16T00:51:34;100823.06;;;18.09;100.00
16481;BME280;44634;54.110;12.138;2022-10-16T00:54:04;100812.50;;;17.93;100.00
16481;BME280;44634;54.110;12.138;2022-10-16T00:56:33;100825.81;;;18.01;100.00
16481;BME280;44634;54.110;12.138;2022-10-16T00:59:03;100817.56;;;17.73;100.00
16481;BME280;44634;54.110;12.138;2022-10-16T01:01:35;100798.03;;;17.87;100.00
16481;BME280;44634;54.110;12.138;2022-10-16T01:04:03;100767.50;;;17.96;100.00
16481;BME280;44634;54.110;12.138;2022-10-16T01:06:36;100762.34;;;18.09;100.00
16481;BME280;44634;54.110;12.138;2022-10-16T01:09:14;100741.84;;;18.17;100.00
16481;BME280;44634;54.110;12.138;2022-10-16T01:11:49;100726.72;;;18.24;100.00
16481;BME280;44634;54.110;12.138;2022-10-16T01:14:34;100755.97;;;18.10;100.00
16481;BME280;44634;54.110;12.138;2022-10-16T01:17:11;100733.38;;;17.98;100.00
16481;BME280;44634;54.110;12.138;2022-10-16T01:19:56;100689.59;;;18.21;100.00
16481;BME280;44634;54.110;12.138;2022-10-16T01:22:34;100635.06;;;18.43;100.00
16481;BME280;44634;54.110;12.138;2022-10-16T01:25:09;100631.47;;;18.14;100.00
16481;BME280;44634;54.110;12.138;2022-10-16T01:27:42;100598.03;;;18.47;100.00
16481;BME280;44634;54.110;12.138;2022-10-16T01:30:16;100527.47;;;18.54;100.00
16481;BME280;44634;54.110;12.138;2022-10-16T01:32:48;100519.47;;;18.11;100.00
16481;BME280;44634;54.110;12.138;2022-10-16T01:35:21;100530.75;;;18.07;100.00
16481;BME280;44634;54.110;12.138;2022-10-16T01:37:53;100510.31;;;18.49;100.00
16481;BME280;44634;54.110;12.138;2022-10-16T01:40:25;100508.13;;;18.31;100.00
16481;BME280;44634;54.110;12.138;2022-10-16T01:42:58;100516.41;;;18.14;100.00
16481;BME280;44634;54.110;12.138;2022-10-16T01:45:28;100532.72;;;18.20;100.00
16481;BME280;44634;54.110;12.138;2022-10-16T01:48:00;100534.97;;;17.95;100.00
16481;BME280;44634;54.110;12.138;2022-10-16T01:50:31;100501.94;;;18.58;100.00
16481;BME280;44634;54.110;12.138;2022-10-16T01:53:01;100497.94;;;18.20;100.00
16481;BME280;44634;54.110;12.138;2022-10-16T01:55:32;100523.84;;;17.76;100.00
16481;BME280;44634;54.110;12.138;2022-10-16T01:58:03;100559.41;;;17.92;100.00
16481;BME280;44634;54.110;12.138;2022-10-16T02:00:33;100557.13;;;18.10;100.00
16481;BME280;44634;54.110;12.138;2022-10-16T02:03:02;100531.75;;;17.84;100.00
16481;BME280;44634;54.110;12.138;2022-10-16T02:05:32;100552.97;;;18.07;100.00
16481;BME280;44634;54.110;12.138;2022-10-16T02:08:02;100548.53;;;18.14;100.00
16481;BME280;44634;54.110;12.138;2022-10-16T02:10:31;100546.78;;;18.07;100.00
16481;BME280;44634;54.110;12.138;2022-10-16T02:13:05;100588.84;;;17.77;100.00
16481;BME280;44634;54.110;12.138;2022-10-16T02:15:35;100633.59;;;17.53;100.00
16481;BME280;44634;54.110;12.138;2022-10-16T02:18:03;100710.09;;;17.54;100.00
16481;BME280;44634;54.110;12.138;2022-10-16T02:20:35;100723.78;;;17.74;100.00
16481;BME280;44634;54.110;12.138;2022-10-16T02:23:04;100734.44;;;17.60;100.00
16481;BME280;44634;54.110;12.138;2022-10-16T02:25:35;100712.34;;;17.66;100.00
16481;BME280;44634;54.110;12.138;2022-10-16T02:28:08;100754.47;;;17.26;100.00
16481;BME280;44634;54.110;12.138;2022-10-16T02:30:42;100749.31;;;17.92;100.00
16481;BME280;44634;54.110;12.138;2022-10-16T02:33:14;100742.03;;;17.33;100.00
16481;BME280;44634;54.110;12.138;2022-10-16T02:35:44;100749.63;;;17.44;100.00
16481;BME280;44634;54.110;12.138;2022-10-16T02:38:15;100743.47;;;17.21;100.00
16481;BME280;44634;54.110;12.138;2022-10-16T02:40:43;100743.47;;;16.83;100.00
16481;BME280;44634;54.110;12.138;2022-10-16T02:43:13;100747.31;;;17.04;100.00
16481;BME280;44634;54.110;12.138;2022-10-16T02:45:41;100719.75;;;17.26;100.00
16481;BME280;44634;54.110;12.138;2022-10-16T02:48:08;100665.00;;;17.22;100.00
16481;BME280;44634;54.110;12.138;2022-10-16T02:50:36;100641.41;;;17.11;100.00
16481;BME280;44634;54.110;12.138;2022-10-16T02:53:04;100650.03;;;16.98;100.00
16481;BME280;44634;54.110;12.138;2022-10-16T02:55:32;100651.06;;;17.12;100.00
16481;BME280;44634;54.110;12.138;2022-10-16T02:57:59;100639.38;;;17.13;100.00
16481;BME280;44634;54.110;12.138;2022-10-16T03:00:29;100649.88;;;17.14;100.00
16481;BME280;44634;54.110;12.138;2022-10-16T03:02:56;100648.38;;;16.97;100.00
16481;BME280;44634;54.110;12.138;2022-10-16T03:05:24;100677.03;;;17.03;100.00
16481;BME280;44634;54.110;12.138;2022-10-16T03:07:52;100659.72;;;16.99;100.00
16481;BME280;44634;54.110;12.138;2022-10-16T03:10:20;100668.72;;;16.98;100.00
16481;BME280;44634;54.110;12.138;2022-10-16T03:12:48;100708.03;;;16.89;100.00
16481;BME280;44634;54.110;12.138;2022-10-16T03:15:16;100691.94;;;16.98;100.00
16481;BME280;44634;54.110;12.138;2022-10-16T03:17:45;100702.44;;;16.76;100.00
16481;BME280;44634;54.110;12.138;2022-10-16T03:20:13;100734.50;;;16.76;100.00
16481;BME280;44634;54.110;12.138;2022-10-16T03:22:42;100754.34;;;16.51;100.00
16481;BME280;44634;54.110;12.138;2022-10-16T03:25:10;100748.28;;;16.57;100.00
16481;BME280;44634;54.110;12.138;2022-10-16T03:27:37;100751.34;;;16.77;100.00
16481;BME280;44634;54.110;12.138;2022-10-16T03:30:06;100740.16;;;16.81;100.00
16481;BME280;44634;54.110;12.138;2022-10-16T03:32:34;100742.88;;;16.73;100.00
16481;BME280;44634;54.110;12.138;2022-10-16T03:35:04;100759.78;;;16.57;100.00
16481;BME280;44634;54.110;12.138;2022-10-16T03:37:32;100759.34;;;16.77;100.00
16481;BME280;44634;54.110;12.138;2022-10-16T03:40:00;100741.28;;;16.56;100.00
16481;BME280;44634;54.110;12.138;2022-10-16T03:42:28;100740.91;;;16.67;100.00
16481;BME280;44634;54.110;12.138;2022-10-16T03:44:55;100749.41;;;16.62;100.00
16481;BME280;44634;54.110;12.138;2022-10-16T03:47:23;100760.50;;;16.51;100.00
16481;BME280;44634;54.110;12.138;2022-10-16T03:49:51;100756.47;;;16.55;100.00
16481;BME280;44634;54.110;12.138;2022-10-16T03:52:20;100777.22;;;16.06;100.00
16481;BME280;44634;54.110;12.138;2022-10-16T03:54:48;100797.78;;;16.28;100.00
16481;BME280;44634;54.110;12.138;2022-10-16T03:57:16;100800.81;;;16.25;100.00
16481;BME280;44634;54.110;12.138;2022-10-16T03:59:44;100758.13;;;16.56;100.00
16481;BME280;44634;54.110;12.138;2022-10-16T04:02:11;100747.06;;;16.36;100.00
16481;BME280;44634;54.110;12.138;2022-10-16T04:04:39;100722.63;;;16.48;100.00
16481;BME280;44634;54.110;12.138;2022-10-16T04:07:07;100739.06;;;16.36;100.00
16481;BME280;44634;54.110;12.138;2022-10-16T04:09:36;100754.53;;;16.10;100.00
16481;BME280;44634;54.110;12.138;2022-10-16T04:12:04;100772.19;;;16.11;100.00
16481;BME280;44634;54.110;12.138;2022-10-16T04:14:31;100775.75;;;16.34;100.00
16481;BME280;44634;54.110;12.138;2022-10-16T04:16:59;100750.97;;;16.18;100.00
16481;BME280;44634;54.110;12.138;2022-10-16T04:19:27;100743.06;;;16.32;100.00
16481;BME280;44634;54.110;12.138;2022-10-16T04:21:54;100723.72;;;16.30;100.00
16481;BME280;44634;54.110;12.138;2022-10-16T04:24:22;100731.00;;;16.14;100.00
16481;BME280;44634;54.110;12.138;2022-10-16T04:26:51;100741.66;;;16.14;100.00
16481;BME280;44634;54.110;12.138;2022-10-16T04:29:19;100765.22;;;16.02;100.00
16481;BME280;44634;54.110;12.138;2022-10-16T04:31:47;100768.88;;;16.01;100.00
16481;BME280;44634;54.110;12.138;2022-10-16T04:34:15;100777.97;;;15.67;100.00
16481;BME280;44634;54.110;12.138;2022-10-16T04:36:42;100819.09;;;15.81;100.00
16481;BME280;44634;54.110;12.138;2022-10-16T04:39:10;100793.16;;;16.14;100.00
16481;BME280;44634;54.110;12.138;2022-10-16T04:41:38;100764.47;;;16.16;100.00
16481;BME280;44634;54.110;12.138;2022-10-16T04:44:07;100770.38;;;16.03;100.00
16481;BME280;44634;54.110;12.138;2022-10-16T04:46:36;100798.13;;;15.78;100.00
16481;BME280;44634;54.110;12.138;2022-10-16T04:49:04;100783.09;;;15.85;100.00
16481;BME280;44634;54.110;12.138;2022-10-16T04:51:32;100798.59;;;15.73;100.00
16481;BME280;44634;54.110;12.138;2022-10-16T04:53:59;100774.03;;;16.02;100.00
16481;BME280;44634;54.110;12.138;2022-10-16T04:56:27;100792.28;;;15.83;100.00
16481;BME280;44634;54.110;12.138;2022-10-16T04:58:55;100783.94;;;15.86;100.00
16481;BME280;44634;54.110;12.138;2022-10-16T05:01:24;100756.72;;;15.98;100.00
16481;BME280;44634;54.110;12.138;2022-10-16T05:03:52;100754.25;;;15.89;100.00
16481;BME280;44634;54.110;12.138;2022-10-16T05:06:19;100757.63;;;15.74;100.00
16481;BME280;44634;54.110;12.138;2022-10-16T05:08:47;100748.16;;;15.64;100.00
16481;BME280;44634;54.110;12.138;2022-10-16T05:11:15;100750.63;;;15.82;100.00
16481;BME280;44634;54.110;12.138;2022-10-16T05:13:42;100749.84;;;16.04;100.00
16481;BME280;44634;54.110;12.138;2022-10-16T05:16:10;100738.28;;;15.81;100.00
16481;BME280;44634;54.110;12.138;2022-10-16T05:18:39;100736.13;;;15.76;100.00
16481;BME280;44634;54.110;12.138;2022-10-16T05:21:07;100703.28;;;15.75;100.00
16481;BME280;44634;54.110;12.138;2022-10-16T05:23:35;100727.03;;;15.62;100.00
16481;BME280;44634;54.110;12.138;2022-10-16T05:26:03;100737.66;;;15.54;100.00
16481;BME280;44634;54.110;12.138;2022-10-16T05:28:31;100729.06;;;15.99;100.00
16481;BME280;44634;54.110;12.138;2022-10-16T05:31:04;100730.81;;;15.68;100.00
16481;BME280;44634;54.110;12.138;2022-10-16T05:33:32;100750.28;;;15.76;100.00
16481;BME280;44634;54.110;12.138;2022-10-16T05:36:02;100752.63;;;15.55;100.00
16481;BME280;44634;54.110;12.138;2022-10-16T05:38:30;100748.34;;;15.38;100.00
16481;BME280;44634;54.110;12.138;2022-10-16T05:40:58;100731.50;;;15.62;100.00
16481;BME280;44634;54.110;12.138;2022-10-16T05:43:27;100717.50;;;15.52;100.00
16481;BME280;44634;54.110;12.138;2022-10-16T05:45:56;100711.84;;;15.63;100.00
16481;BME280;44634;54.110;12.138;2022-10-16T05:48:24;100709.16;;;15.71;100.00
16481;BME280;44634;54.110;12.138;2022-10-16T05:50:59;100681.22;;;15.98;100.00
16481;BME280;44634;54.110;12.138;2022-10-16T05:53:29;100706.19;;;15.41;100.00
16481;BME280;44634;54.110;12.138;2022-10-16T05:55:58;100723.84;;;15.42;100.00
16481;BME280;44634;54.110;12.138;2022-10-16T05:58:28;100726.38;;;15.36;100.00
16481;BME280;44634;54.110;12.138;2022-10-16T06:00:57;100719.34;;;15.67;100.00
16481;BME280;44634;54.110;12.138;2022-10-16T06:03:26;100696.34;;;15.66;100.00
16481;BME280;44634;54.110;12.138;2022-10-16T06:05:57;100678.66;;;15.57;100.00
16481;BME280;44634;54.110;12.138;2022-10-16T06:08:25;100683.03;;;15.66;100.00
16481;BME280;44634;54.110;12.138;2022-10-16T06:11:02;100700.56;;;15.36;100.00
16481;BME280;44634;54.110;12.138;2022-10-16T06:13:30;100680.22;;;15.43;100.00
16481;BME280;44634;54.110;12.138;2022-10-16T06:15:59;100705.66;;;15.54;100.00
16481;BME280;44634;54.110;12.138;2022-10-16T06:18:28;100679.03;;;15.46;100.00
16481;BME280;44634;54.110;12.138;2022-10-16T06:20:57;100682.97;;;15.83;100.00
16481;BME280;44634;54.110;12.138;2022-10-16T06:23:25;100695.19;;;15.61;100.00
16481;BME280;44634;54.110;12.138;2022-10-16T06:25:53;100724.88;;;15.17;100.00
16481;BME280;44634;54.110;12.138;2022-10-16T06:28:22;100747.84;;;15.26;100.00
16481;BME280;44634;54.110;12.138;2022-10-16T06:30:58;100714.31;;;15.72;100.00
16481;BME280;44634;54.110;12.138;2022-10-16T06:33:33;100704.41;;;15.34;100.00
16481;BME280;44634;54.110;12.138;2022-10-16T06:36:01;100698.38;;;15.32;100.00
16481;BME280;44634;54.110;12.138;2022-10-16T06:38:30;100674.22;;;15.33;100.00
16481;BME280;44634;54.110;12.138;2022-10-16T06:40:58;100672.19;;;15.60;100.00
16481;BME280;44634;54.110;12.138;2022-10-16T06:43:28;100654.19;;;15.70;100.00
16481;BME280;44634;54.110;12.138;2022-10-16T06:45:59;100655.03;;;15.54;100.00
16481;BME280;44634;54.110;12.138;2022-10-16T06:48:28;100643.88;;;15.67;100.00
16481;BME280;44634;54.110;12.138;2022-10-16T06:50:57;100626.06;;;15.51;100.00
16481;BME280;44634;54.110;12.138;2022-10-16T06:53:27;100628.19;;;15.72;100.00
16481;BME280;44634;54.110;12.138;2022-10-16T06:55:55;100631.59;;;15.50;100.00
16481;BME280;44634;54.110;12.138;2022-10-16T06:58:23;100642.06;;;15.51;100.00
16481;BME280;44634;54.110;12.138;2022-10-16T07:00:56;100646.22;;;15.45;100.00
16481;BME280;44634;54.110;12.138;2022-10-16T07:03:24;100623.69;;;15.72;100.00
16481;BME280;44634;54.110;12.138;2022-10-16T07:05:52;100641.38;;;15.57;100.00
16481;BME280;44634;54.110;12.138;2022-10-16T07:08:20;100627.31;;;15.80;100.00
16481;BME280;44634;54.110;12.138;2022-10-16T07:10:59;100616.22;;;15.68;100.00
16481;BME280;44634;54.110;12.138;2022-10-16T07:13:51;100617.84;;;15.77;100.00
16481;BME280;44634;54.110;12.138;2022-10-16T07:16:24;100609.50;;;16.03;100.00
16481;BME280;44634;54.110;12.138;2022-10-16T07:18:53;100630.16;;;15.78;100.00
16481;BME280;44634;54.110;12.138;2022-10-16T07:21:26;100627.69;;;15.68;100.00
16481;BME280;44634;54.110;12.138;2022-10-16T07:23:56;100624.03;;;15.69;100.00
16481;BME280;44634;54.110;12.138;2022-10-16T07:26:25;100637.56;;;15.60;100.00
16481;BME280;44634;54.110;12.138;2022-10-16T07:28:53;100626.50;;;15.79;100.00
16481;BME280;44634;54.110;12.138;2022-10-16T07:31:23;100627.53;;;16.01;100.00
16481;BME280;44634;54.110;12.138;2022-10-16T07:33:54;100622.03;;;16.48;100.00
16481;BME280;44634;54.110;12.138;2022-10-16T07:36:22;100603.84;;;16.52;100.00
16481;BME280;44634;54.110;12.138;2022-10-16T07:38:52;100603.69;;;16.91;100.00
16481;BME280;44634;54.110;12.138;2022-10-16T07:41:26;100614.69;;;18.06;100.00
16481;BME280;44634;54.110;12.138;2022-10-16T07:43:54;100633.22;;;17.42;100.00
16481;BME280;44634;54.110;12.138;2022-10-16T07:46:25;100678.50;;;18.38;100.00
16481;BME280;44634;54.110;12.138;2022-10-16T07:48:53;100712.22;;;18.18;100.00
16481;BME280;44634;54.110;12.138;2022-10-16T07:51:22;100754.97;;;19.05;100.00
16481;BME280;44634;54.110;12.138;2022-10-16T07:53:56;100775.06;;;18.94;100.00
16481;BME280;44634;54.110;12.138;2022-10-16T07:56:24;100810.72;;;18.73;100.00
16481;BME280;44634;54.110;12.138;2022-10-16T07:58:52;100814.00;;;18.90;100.00
16481;BME280;44634;54.110;12.138;2022-10-16T08:01:20;100834.34;;;19.06;100.00
16481;BME280;44634;54.110;12.138;2022-10-16T08:03:50;100901.94;;;19.59;100.00
16481;BME280;44634;54.110;12.138;2022-10-16T08:06:20;100905.16;;;19.33;100.00
16481;BME280;44634;54.110;12.138;2022-10-16T08:08:53;100878.69;;;19.66;100.00
16481;BME280;44634;54.110;12.138;2022-10-16T08:11:21;100912.66;;;19.01;100.00
16481;BME280;44634;54.110;12.138;2022-10-16T08:13:49;100942.75;;;19.76;100.00
16481;BME280;44634;54.110;12.138;2022-10-16T08:16:17;100955.16;;;19.55;100.00
16481;BME280;44634;54.110;12.138;2022-10-16T08:18:45;100991.53;;;19.65;100.00
16481;BME280;44634;54.110;12.138;2022-10-16T08:21:16;100986.81;;;20.09;100.00
16481;BME280;44634;54.110;12.138;2022-10-16T08:23:47;100994.88;;;20.09;100.00
16481;BME280;44634;54.110;12.138;2022-10-16T08:26:22;100982.63;;;20.00;100.00
16481;BME280;44634;54.110;12.138;2022-10-16T08:28:50;100997.19;;;20.12;100.00
16481;BME280;44634;54.110;12.138;2022-10-16T08:31:18;100977.41;;;19.05;100.00
16481;BME280;44634;54.110;12.138;2022-10-16T08:33:46;100981.59;;;19.44;100.00
16481;BME280;44634;54.110;12.138;2022-10-16T08:36:16;100988.75;;;19.73;100.00
16481;BME280;44634;54.110;12.138;2022-10-16T08:38:47;101007.78;;;20.20;100.00
16481;BME280;44634;54.110;12.138;2022-10-16T08:44:36;100968.78;;;19.39;100.00
16481;BME280;44634;54.110;12.138;2022-10-16T08:47:13;100970.00;;;19.22;100.00
16481;BME280;44634;54.110;12.138;2022-10-16T08:49:55;100988.25;;;19.48;100.00
16481;BME280;44634;54.110;12.138;2022-10-16T08:52:27;100988.91;;;19.35;100.00
16481;BME280;44634;54.110;12.138;2022-10-16T08:54:56;100975.56;;;19.06;100.00
16481;BME280;44634;54.110;12.138;2022-10-16T08:57:25;100961.63;;;18.66;100.00
16481;BME280;44634;54.110;12.138;2022-10-16T08:59:54;100955.50;;;19.16;100.00
16481;BME280;44634;54.110;12.138;2022-10-16T09:02:31;100981.53;;;19.22;100.00
16481;BME280;44634;54.110;12.138;2022-10-16T09:05:15;100967.22;;;19.30;100.00
16481;BME280;44634;54.110;12.138;2022-10-16T09:07:55;100958.19;;;19.16;100.00
16481;BME280;44634;54.110;12.138;2022-10-16T09:10:40;100934.44;;;19.13;100.00
16481;BME280;44634;54.110;12.138;2022-10-16T09:13:17;100963.00;;;19.78;100.00
16481;BME280;44634;54.110;12.138;2022-10-16T09:15:53;101031.47;;;20.60;100.00
16481;BME280;44634;54.110;12.138;2022-10-16T09:18:29;101064.25;;;21.46;100.00
16481;BME280;44634;54.110;12.138;2022-10-16T09:21:08;101089.81;;;21.76;100.00
16481;BME280;44634;54.110;12.138;2022-10-16T09:23:38;101097.81;;;21.22;100.00
16481;BME280;44634;54.110;12.138;2022-10-16T09:26:10;101077.09;;;21.50;100.00
16481;BME280;44634;54.110;12.138;2022-10-16T09:28:41;101076.28;;;21.15;100.00
16481;BME280;44634;54.110;12.138;2022-10-16T09:31:15;101040.69;;;21.13;100.00
16481;BME280;44634;54.110;12.138;2022-10-16T09:33:44;101092.72;;;20.07;100.00
16481;BME280;44634;54.110;12.138;2022-10-16T09:36:13;101028.16;;;19.72;100.00
16481;BME280;44634;54.110;12.138;2022-10-16T09:38:42;101023.84;;;20.14;100.00
16481;BME280;44634;54.110;12.138;2022-10-16T09:41:15;101051.00;;;20.04;100.00
16481;BME280;44634;54.110;12.138;2022-10-16T09:43:49;101051.13;;;21.29;100.00
16481;BME280;44634;54.110;12.138;2022-10-16T09:46:27;101086.97;;;21.97;100.00
16481;BME280;44634;54.110;12.138;2022-10-16T09:48:57;101111.72;;;21.66;100.00
16481;BME280;44634;54.110;12.138;2022-10-16T09:51:29;101141.63;;;22.85;100.00
16481;BME280;44634;54.110;12.138;2022-10-16T09:54:00;101154.59;;;23.41;100.00
16481;BME280;44634;54.110;12.138;2022-10-16T09:56:30;101160.66;;;23.37;100.00
16481;BME280;44634;54.110;12.138;2022-10-16T09:59:01;101170.66;;;22.97;100.00
16481;BME280;44634;54.110;12.138;2022-10-16T10:01:34;101184.81;;;23.83;100.00
16481;BME280;44634;54.110;12.138;2022-10-16T10:04:04;101180.34;;;23.51;100.00
16481;BME280;44634;54.110;12.138;2022-10-16T10:06:35;101177.06;;;22.76;100.00
16481;BME280;44634;54.110;12.138;2022-10-16T10:09:16;101183.94;;;22.98;100.00
16481;BME280;44634;54.110;12.138;2022-10-16T10:11:48;101167.13;;;23.29;100.00
16481;BME280;44634;54.110;12.138;2022-10-16T10:14:21;101202.97;;;23.50;100.00
16481;BME280;44634;54.110;12.138;2022-10-16T10:16:50;101170.41;;;23.25;100.00
16481;BME280;44634;54.110;12.138;2022-10-16T10:19:20;101192.44;;;23.22;100.00
16481;BME280;44634;54.110;12.138;2022-10-16T10:21:49;101186.13;;;22.42;100.00
16481;BME280;44634;54.110;12.138;2022-10-16T10:24:19;101170.88;;;23.02;100.00
16481;BME280;44634;54.110;12.138;2022-10-16T10:26:53;101191.97;;;23.58;100.00
16481;BME280;44634;54.110;12.138;2022-10-16T10:29:34;101195.06;;;24.19;100.00
16481;BME280;44634;54.110;12.138;2022-10-16T10:32:14;101214.31;;;23.91;100.00
16481;BME280;44634;54.110;12.138;2022-10-16T10:34:59;101215.84;;;23.41;100.00
16481;BME280;44634;54.110;12.138;2022-10-16T10:37:47;101196.59;;;23.31;100.00
16481;BME280;44634;54.110;12.138;2022-10-16T10:40:29;101191.94;;;24.16;100.00
16481;BME280;44634;54.110;12.138;2022-10-16T10:43:05;101209.69;;;23.98;100.00
16481;BME280;44634;54.110;12.138;2022-10-16T10:45:42;101222.88;;;24.26;100.00
16481;BME280;44634;54.110;12.138;2022-10-16T10:48:19;101233.50;;;23.50;100.00
16481;BME280;44634;54.110;12.138;2022-10-16T10:50:52;101210.06;;;22.71;100.00
16481;BME280;44634;54.110;12.138;2022-10-16T10:53:34;101207.16;;;22.99;100.00
16481;BME280;44634;54.110;12.138;2022-10-16T10:56:15;101217.34;;;23.17;100.00
16481;BME280;44634;54.110;12.138;2022-10-16T10:59:07;101213.13;;;23.54;100.00
16481;BME280;44634;54.110;12.138;2022-10-16T11:01:43;101224.38;;;22.98;100.00
16481;BME280;44634;54.110;12.138;2022-10-16T11:07:27;101223.31;;;24.23;100.00
16481;BME280;44634;54.110;12.138;2022-10-16T11:10:01;101239.44;;;23.92;100.00
16481;BME280;44634;54.110;12.138;2022-10-16T11:12:35;101243.69;;;23.28;100.00
16481;BME280;44634;54.110;12.138;2022-10-16T11:15:10;101242.63;;;23.42;100.00
16481;BME280;44634;54.110;12.138;2022-10-16T11:17:42;101239.84;;;23.95;100.00
16481;BME280;44634;54.110;12.138;2022-10-16T11:20:14;101250.38;;;24.17;100.00
16481;BME280;44634;54.110;12.138;2022-10-16T11:22:48;101219.59;;;24.18;100.00
16481;BME280;44634;54.110;12.138;2022-10-16T11:25:20;101233.19;;;25.56;100.00
16481;BME280;44634;54.110;12.138;2022-10-16T11:27:55;101263.97;;;23.84;100.00
16481;BME280;44634;54.110;12.138;2022-10-16T11:30:26;101245.56;;;23.34;100.00
16481;BME280;44634;54.110;12.138;2022-10-16T11:33:10;101236.19;;;23.63;100.00
16481;BME280;44634;54.110;12.138;2022-10-16T11:35:48;101235.41;;;24.59;100.00
16481;BME280;44634;54.110;12.138;2022-10-16T11:38:26;101246.72;;;24.43;100.00
16481;BME280;44634;54.110;12.138;2022-10-16T11:40:57;101257.63;;;24.23;100.00
16481;BME280;44634;54.110;12.138;2022-10-16T11:43:32;101258.09;;;24.00;100.00
16481;BME280;44634;54.110;12.138;2022-10-16T11:46:08;101260.31;;;23.58;100.00
16481;BME280;44634;54.110;12.138;2022-10-16T11:48:42;101265.81;;;24.03;100.00
16481;BME280;44634;54.110;12.138;2022-10-16T11:51:20;101249.84;;;24.46;100.00
16481;BME280;44634;54.110;12.138;2022-10-16T11:53:57;101258.34;;;24.81;100.00
16481;BME280;44634;54.110;12.138;2022-10-16T11:56:30;101239.09;;;25.03;100.00
16481;BME280;44634;54.110;12.138;2022-10-16T11:59:03;101273.44;;;24.96;100.00
16481;BME280;44634;54.110;12.138;2022-10-16T12:01:37;101281.66;;;24.44;100.00
16481;BME280;44634;54.110;12.138;2022-10-16T12:04:16;101242.81;;;24.70;100.00
16481;BME280;44634;54.110;12.138;2022-10-16T12:06:49;101260.75;;;24.96;100.00
16481;BME280;44634;54.110;12.138;2022-10-16T12:09:22;101266.53;;;25.06;100.00
16481;BME280;44634;54.110;12.138;2022-10-16T12:11:52;101263.31;;;24.84;100.00
16481;BME280;44634;54.110;12.138;2022-10-16T12:14:42;101265.28;;;24.71;100.00
16481;BME280;44634;54.110;12.138;2022-10-16T12:17:36;101260.63;;;24.84;100.00
16481;BME280;44634;54.110;12.138;2022-10-16T12:20:21;101274.44;;;24.25;100.00
16481;BME280;44634;54.110;12.138;2022-10-16T12:22:50;101307.63;;;23.67;100.00
16481;BME280;44634;54.110;12.138;2022-10-16T12:25:24;101284.41;;;24.38;100.00
16481;BME280;44634;54.110;12.138;2022-10-16T12:27:57;101267.97;;;24.71;100.00
16481;BME280;44634;54.110;12.138;2022-10-16T12:30:28;101270.06;;;23.33;100.00
16481;BME280;44634;54.110;12.138;2022-10-16T12:33:02;101278.94;;;24.44;100.00
16481;BME280;44634;54.110;12.138;2022-10-16T12:35:33;101287.28;;;23.32;100.00
16481;BME280;44634;54.110;12.138;2022-10-16T12:38:15;101289.44;;;24.21;100.00
16481;BME280;44634;54.110;12.138;2022-10-16T12:40:45;101286.41;;;24.87;100.00
16481;BME280;44634;54.110;12.138;2022-10-16T12:43:27;101304.09;;;24.89;100.00
16481;BME280;44634;54.110;12.138;2022-10-16T12:46:02;101305.28;;;23.97;100.00
16481;BME280;44634;54.110;12.138;2022-10-16T12:48:30;101310.94;;;23.36;100.00
16481;BME280;44634;54.110;12.138;2022-10-16T12:51:23;101373.63;;;21.95;100.00
16481;BME280;44634;54.110;12.138;2022-10-16T12:54:01;101339.44;;;21.67;100.00
16481;BME280;44634;54.110;12.138;2022-10-16T12:56:39;101324.13;;;21.40;100.00
16481;BME280;44634;54.110;12.138;2022-10-16T12:59:17;101333.25;;;21.24;100.00